Time;durP1;ratioP1;P1;durP2;ratioP2;P2;SDS_P1;SDS_P2;PMS_P1;PMS_P2;Temp;Humidity;BMP_temperature;BMP_pressure;BME280_temperature;BME280_humidity;BME280_pressure;Samples;Min_cycle;Max_cycle;Signal;HPM_P1;HPM_P2
2023/09/20 00:00:15;;;;;;;;;;;;;;;31.77;28.94;98090.34;4998229;28;19944;-90
2023/09/20 00:02:41;;;;;;;;;;;;;;;31.81;28.48;98087.34;5009417;28;19921;-90
2023/09/20 00:05:14;;;;;;;;;;;;;;;31.82;28.85;98089.69;5013804;28;20298;-90
2023/09/20 00:07:41;;;;;;;;;;;;;;;31.89;28.72;98085.69;5011757;28;19921;-89
2023/09/20 00:10:12;;;;;;;;;;;;;;;31.93;28.57;98091.94;5014945;28;19967;-88
2023/09/20 00:12:40;;;;;;;;;;;;;;;31.93;28.68;98098.41;5006343;28;19937;-89
2023/09/20 00:15:07;;;;;;;;;;;;;;;31.74;28.95;98087.72;5013780;28;20385;-89
2023/09/20 00:17:34;;;;;;;;;;;;;;;31.62;28.77;98091.59;5007270;28;20301;-89
2023/09/20 00:20:13;;;;;;;;;;;;;;;31.66;28.41;98090.16;5007917;28;19918;-89
2023/09/20 00:22:40;;;;;;;;;;;;;;;31.83;28.29;98096.94;5013927;28;20472;-88
2023/09/20 00:25:10;;;;;;;;;;;;;;;31.80;27.91;98097.13;5011974;28;19917;-89
2023/09/20 00:27:38;;;;;;;;;;;;;;;31.73;28.44;98088.97;5007624;28;19976;-88
2023/09/20 00:30:06;;;;;;;;;;;;;;;31.65;28.33;98099.91;5011205;28;19944;-88
2023/09/20 00:32:32;;;;;;;;;;;;;;;31.70;28.67;98096.41;5007934;28;19921;-88
2023/09/20 00:34:58;;;;;;;;;;;;;;;31.68;28.74;98107.47;5006691;28;19928;-88
2023/09/20 00:37:24;;;;;;;;;;;;;;;31.81;28.69;98105.13;5005910;28;19922;-88
2023/09/20 00:39:50;;;;;;;;;;;;;;;31.86;28.70;98107.31;5007195;28;19922;-89
2023/09/20 00:42:16;;;;;;;;;;;;;;;31.94;28.80;98107.72;5008492;28;19951;-90
2023/09/20 00:44:42;;;;;;;;;;;;;;;31.85;28.47;98102.13;5011657;28;20377;-89
2023/09/20 00:47:11;;;;;;;;;;;;;;;31.98;28.65;98105.50;5012284;28;19930;-89
2023/09/20 00:49:37;;;;;;;;;;;;;;;31.83;29.00;98105.47;5013371;28;19925;-89
2023/09/20 00:52:06;;;;;;;;;;;;;;;31.83;28.58;98110.34;5001859;28;19929;-89
2023/09/20 00:54:33;;;;;;;;;;;;;;;31.99;28.72;98112.75;5012270;28;20310;-89
2023/09/20 00:56:59;;;;;;;;;;;;;;;31.98;28.95;98114.81;5010347;28;19936;-89
2023/09/20 00:59:25;;;;;;;;;;;;;;;31.86;29.04;98113.00;5007666;28;19924;-89
2023/09/20 01:01:52;;;;;;;;;;;;;;;31.88;28.42;98113.28;5013009;28;19924;-89
2023/09/20 01:04:18;;;;;;;;;;;;;;;31.80;29.26;98122.69;5013184;28;19925;-88
2023/09/20 01:06:46;;;;;;;;;;;;;;;32.09;28.71;98120.69;4999206;28;19925;-88
2023/09/20 01:09:13;;;;;;;;;;;;;;;31.85;29.00;98122.78;5013808;28;19924;-88
2023/09/20 01:11:40;;;;;;;;;;;;;;;31.99;29.15;98119.22;5009895;28;20327;-88
2023/09/20 01:14:06;;;;;;;;;;;;;;;32.01;28.79;98124.41;5011728;28;20393;-88
2023/09/20 01:16:33;;;;;;;;;;;;;;;32.08;28.53;98126.88;5013497;28;20432;-88
2023/09/20 01:19:00;;;;;;;;;;;;;;;32.04;28.63;98129.13;5013521;28;19922;-89
2023/09/20 01:21:26;;;;;;;;;;;;;;;32.09;28.77;98117.84;5009398;28;19928;-89
2023/09/20 01:23:52;;;;;;;;;;;;;;;32.03;28.17;98122.66;5002756;28;19964;-89
2023/09/20 01:26:19;;;;;;;;;;;;;;;31.80;29.19;98122.69;5008798;28;19968;-88
2023/09/20 01:28:45;;;;;;;;;;;;;;;31.89;28.89;98126.22;5019661;28;20004;-88
2023/09/20 01:31:11;;;;;;;;;;;;;;;31.95;29.04;98121.44;5016699;28;19968;-88
2023/09/20 01:33:38;;;;;;;;;;;;;;;32.04;28.98;98124.22;5015087;28;20071;-88
2023/09/20 01:36:04;;;;;;;;;;;;;;;32.01;29.48;98130.88;5011548;28;19968;-88
2023/09/20 01:38:30;;;;;;;;;;;;;;;31.97;29.52;98130.28;5012530;28;19921;-89
2023/09/20 01:40:58;;;;;;;;;;;;;;;31.97;29.50;98124.59;5011888;28;19948;-89
2023/09/20 01:43:25;;;;;;;;;;;;;;;31.93;29.41;98121.13;5009729;28;19931;-89
2023/09/20 01:45:51;;;;;;;;;;;;;;;32.00;29.06;98132.16;5012727;28;20580;-89
2023/09/20 01:48:17;;;;;;;;;;;;;;;32.12;28.72;98129.50;5021853;28;19926;-89
2023/09/20 01:50:43;;;;;;;;;;;;;;;32.03;29.11;98136.84;5006251;28;20340;-89
2023/09/20 01:53:11;;;;;;;;;;;;;;;31.95;29.19;98132.78;5013411;28;19922;-89
2023/09/20 01:55:37;;;;;;;;;;;;;;;31.92;28.52;98135.84;5009268;28;19925;-89
2023/09/20 01:58:06;;;;;;;;;;;;;;;31.94;29.21;98136.13;5010327;28;19921;-89
2023/09/20 02:00:32;;;;;;;;;;;;;;;31.82;28.85;98135.13;5013251;28;19917;-89
2023/09/20 02:03:16;;;;;;;;;;;;;;;31.84;29.14;98135.41;5011464;28;19941;-89
2023/09/20 02:05:44;;;;;;;;;;;;;;;31.89;29.34;98134.75;5012827;28;19929;-88
2023/09/20 02:08:10;;;;;;;;;;;;;;;32.01;28.63;98130.09;5013129;28;19946;-88
2023/09/20 02:10:38;;;;;;;;;;;;;;;32.00;28.23;98139.88;5007873;28;20373;-88
2023/09/20 02:13:04;;;;;;;;;;;;;;;31.90;28.74;98135.53;5010970;28;19925;-88
2023/09/20 02:15:31;;;;;;;;;;;;;;;31.76;29.14;98130.59;5014365;28;20389;-88
2023/09/20 02:17:57;;;;;;;;;;;;;;;31.55;29.34;98134.56;5015169;28;19957;-88
2023/09/20 02:20:25;;;;;;;;;;;;;;;31.70;29.28;98135.38;5011601;28;19921;-88
2023/09/20 02:22:53;;;;;;;;;;;;;;;31.70;29.34;98127.66;5017483;28;20312;-88
2023/09/20 02:25:22;;;;;;;;;;;;;;;31.81;28.58;98132.78;5012986;28;19928;-88
2023/09/20 02:27:49;;;;;;;;;;;;;;;31.75;28.73;98129.81;5013274;28;19929;-88
2023/09/20 02:30:16;;;;;;;;;;;;;;;31.76;28.88;98131.41;5018991;28;20392;-88
2023/09/20 02:32:43;;;;;;;;;;;;;;;31.79;28.45;98133.25;5012914;28;20286;-88
2023/09/20 02:35:09;;;;;;;;;;;;;;;31.68;28.35;98140.75;5006653;28;19956;-88
2023/09/20 02:37:36;;;;;;;;;;;;;;;31.72;28.62;98127.94;5013453;28;19922;-88
2023/09/20 02:40:07;;;;;;;;;;;;;;;31.67;28.63;98133.53;5019177;28;20012;-88
2023/09/20 02:42:43;;;;;;;;;;;;;;;31.74;28.91;98136.00;5012779;28;19975;-87
2023/09/20 02:45:11;;;;;;;;;;;;;;;31.62;28.65;98134.97;5007325;28;19928;-88
2023/09/20 02:47:37;;;;;;;;;;;;;;;31.73;28.37;98131.56;5012742;28;20433;-88
2023/09/20 02:50:04;;;;;;;;;;;;;;;31.68;28.39;98133.03;5013936;28;19922;-89
2023/09/20 02:52:33;;;;;;;;;;;;;;;31.74;28.55;98130.31;5013919;28;19973;-88
2023/09/20 02:57:55;;;;;;;;;;;;;;;31.72;27.84;98135.66;5011824;28;19921;-88
2023/09/20 03:00:22;;;;;;;;;;;;;;;31.75;28.12;98134.69;5014390;28;19976;-88
2023/09/20 03:02:49;;;;;;;;;;;;;;;31.72;28.04;98135.66;5012741;28;20324;-88
2023/09/20 03:05:19;;;;;;;;;;;;;;;31.68;28.14;98124.50;5014765;28;19964;-88
2023/09/20 03:07:47;;;;;;;;;;;;;;;31.62;28.85;98134.19;5012715;28;19965;-87
2023/09/20 03:10:13;;;;;;;;;;;;;;;31.67;27.65;98133.53;5012626;28;19944;-88
2023/09/20 03:12:41;;;;;;;;;;;;;;;31.52;27.90;98136.31;5005903;28;20377;-87
2023/09/20 03:15:10;;;;;;;;;;;;;;;31.66;27.73;98141.25;5006935;28;22130;-87
2023/09/20 03:17:37;;;;;;;;;;;;;;;31.64;28.02;98140.16;5011233;28;19921;-87
2023/09/20 03:20:16;;;;;;;;;;;;;;;31.62;27.87;98131.34;5008287;28;19990;-87
2023/09/20 03:22:42;;;;;;;;;;;;;;;31.64;27.35;98137.31;5012946;28;19921;-87
2023/09/20 03:25:14;;;;;;;;;;;;;;;31.64;27.73;98134.47;5009860;28;20079;-87
2023/09/20 03:27:42;;;;;;;;;;;;;;;31.56;27.52;98127.59;5007831;28;19993;-87
2023/09/20 03:30:11;;;;;;;;;;;;;;;31.53;27.77;98129.34;5011665;28;19936;-86
2023/09/20 03:32:39;;;;;;;;;;;;;;;31.57;27.69;98126.34;5011349;28;19921;-86
2023/09/20 03:35:06;;;;;;;;;;;;;;;31.62;27.47;98137.03;5012814;28;19921;-87
2023/09/20 03:37:33;;;;;;;;;;;;;;;31.53;27.37;98135.00;5008180;28;19991;-87
2023/09/20 03:39:59;;;;;;;;;;;;;;;31.46;27.44;98132.53;5011010;28;20428;-87
2023/09/20 03:42:25;;;;;;;;;;;;;;;31.51;27.39;98131.13;5005024;28;19918;-87
2023/09/20 03:44:51;;;;;;;;;;;;;;;31.38;27.83;98134.94;5001698;28;19925;-87
2023/09/20 03:47:19;;;;;;;;;;;;;;;31.33;27.60;98131.97;5027390;28;19983;-87
2023/09/20 03:49:45;;;;;;;;;;;;;;;31.11;27.74;98135.09;5023000;28;19918;-87
2023/09/20 03:52:11;;;;;;;;;;;;;;;31.24;27.59;98132.84;5013654;28;19960;-87
2023/09/20 03:54:37;;;;;;;;;;;;;;;31.18;27.82;98133.97;5010996;28;19929;-87
2023/09/20 03:57:03;;;;;;;;;;;;;;;31.27;28.14;98133.91;5007811;28;20286;-87
2023/09/20 03:59:31;;;;;;;;;;;;;;;31.20;27.54;98126.53;5005325;28;19929;-87
2023/09/20 04:01:57;;;;;;;;;;;;;;;31.20;27.67;98128.59;5008687;28;20071;-87
2023/09/20 04:04:23;;;;;;;;;;;;;;;31.16;27.91;98139.31;5017962;28;20417;-87
2023/09/20 04:06:49;;;;;;;;;;;;;;;31.30;27.07;98138.59;5010910;28;20016;-87
2023/09/20 04:09:17;;;;;;;;;;;;;;;31.23;27.36;98136.13;5003503;28;19965;-86
2023/09/20 04:11:43;;;;;;;;;;;;;;;31.31;27.63;98134.53;5007093;28;19922;-84
2023/09/20 04:14:09;;;;;;;;;;;;;;;31.34;27.42;98128.66;5006113;28;20254;-83
2023/09/20 04:16:36;;;;;;;;;;;;;;;31.32;27.24;98136.88;5005353;28;20277;-84
2023/09/20 04:19:02;;;;;;;;;;;;;;;31.20;27.16;98128.59;5007145;28;19921;-84
2023/09/20 04:21:28;;;;;;;;;;;;;;;31.03;28.09;98142.41;4996952;28;19926;-83
2023/09/20 04:23:54;;;;;;;;;;;;;;;31.15;27.66;98137.78;5005334;28;20009;-84
2023/09/20 04:26:20;;;;;;;;;;;;;;;31.23;27.42;98141.81;5001901;28;20390;-84
2023/09/20 04:28:48;;;;;;;;;;;;;;;31.13;27.78;98135.44;5002891;28;19955;-89
2023/09/20 04:31:14;;;;;;;;;;;;;;;31.22;27.25;98137.41;5007214;28;19929;-87
2023/09/20 04:33:40;;;;;;;;;;;;;;;31.33;27.09;98149.78;4999121;28;19917;-86
2023/09/20 04:36:06;;;;;;;;;;;;;;;31.28;27.83;98141.94;5012469;28;19922;-82
2023/09/20 04:38:32;;;;;;;;;;;;;;;31.26;27.08;98146.53;5008043;28;19929;-82
2023/09/20 04:40:59;;;;;;;;;;;;;;;31.27;27.14;98151.72;5010714;28;19933;-83
2023/09/20 04:43:26;;;;;;;;;;;;;;;31.23;27.06;98156.00;5004515;28;19918;-84
2023/09/20 04:45:52;;;;;;;;;;;;;;;31.13;27.93;98149.59;5006570;28;19940;-83
2023/09/20 04:48:18;;;;;;;;;;;;;;;31.16;27.80;98153.50;5011602;28;19934;-83
2023/09/20 04:50:48;;;;;;;;;;;;;;;31.15;27.84;98154.78;5011392;28;19928;-83
2023/09/20 04:53:14;;;;;;;;;;;;;;;31.20;27.92;98156.97;5010501;28;20396;-83
2023/09/20 04:55:40;;;;;;;;;;;;;;;31.39;27.49;98164.88;5009535;28;19921;-84
2023/09/20 04:58:06;;;;;;;;;;;;;;;31.37;27.30;98160.94;5008698;28;19922;-86
2023/09/20 05:00:37;;;;;;;;;;;;;;;31.48;27.67;98163.31;4998874;28;20012;-86
2023/09/20 05:03:03;;;;;;;;;;;;;;;31.58;27.00;98164.81;5006209;28;20376;-86
2023/09/20 05:05:32;;;;;;;;;;;;;;;31.71;27.33;98166.13;5012077;28;20447;-85
2023/09/20 05:07:58;;;;;;;;;;;;;;;31.67;26.99;98162.66;5004940;28;20024;-88
2023/09/20 05:10:25;;;;;;;;;;;;;;;31.69;27.45;98168.69;5011007;28;19929;-86
2023/09/20 05:12:51;;;;;;;;;;;;;;;31.81;27.74;98164.78;5022721;28;20459;-87
2023/09/20 05:15:17;;;;;;;;;;;;;;;31.93;27.58;98160.09;5010593;28;19921;-87
2023/09/20 05:17:43;;;;;;;;;;;;;;;31.82;27.52;98168.41;5010276;28;19929;-86
2023/09/20 05:20:13;;;;;;;;;;;;;;;32.04;28.06;98166.06;5015800;28;19926;-86
2023/09/20 05:22:39;;;;;;;;;;;;;;;32.20;27.95;98168.44;5007849;28;19921;-85
2023/09/20 05:25:07;;;;;;;;;;;;;;;32.40;27.82;98173.44;5008385;28;19968;-87
2023/09/20 05:27:34;;;;;;;;;;;;;;;32.56;27.64;98182.31;5007977;28;19921;-84
2023/09/20 05:30:00;;;;;;;;;;;;;;;32.52;27.71;98178.88;5007404;28;19928;-84
2023/09/20 05:32:27;;;;;;;;;;;;;;;32.30;28.00;98180.50;5002799;28;20353;-84
2023/09/20 05:34:53;;;;;;;;;;;;;;;32.17;28.48;98179.97;5006144;28;19929;-85
2023/09/20 05:37:19;;;;;;;;;;;;;;;32.09;28.83;98179.59;5004496;28;19921;-86
2023/09/20 05:39:48;;;;;;;;;;;;;;;32.31;28.97;98180.00;4998940;28;19921;-89
2023/09/20 05:42:14;;;;;;;;;;;;;;;32.47;29.19;98181.56;5005385;28;19928;-86
2023/09/20 05:44:40;;;;;;;;;;;;;;;32.46;28.56;98182.88;5001823;28;19928;-86
2023/09/20 05:47:08;;;;;;;;;;;;;;;32.59;28.81;98186.22;5011135;28;19929;-86
2023/09/20 05:49:34;;;;;;;;;;;;;;;32.50;29.30;98184.28;5008337;28;19944;-87
2023/09/20 05:52:02;;;;;;;;;;;;;;;32.62;29.06;98188.09;5008892;28;19918;-88
2023/09/20 05:54:29;;;;;;;;;;;;;;;32.85;29.07;98192.09;5013942;28;19926;-87
2023/09/20 05:56:55;;;;;;;;;;;;;;;33.20;28.47;98185.22;5015347;28;19922;-87
2023/09/20 05:59:22;;;;;;;;;;;;;;;33.45;28.42;98189.44;5014439;28;19921;-87
2023/09/20 06:01:48;;;;;;;;;;;;;;;33.39;29.09;98189.38;5016188;28;20301;-87
2023/09/20 06:04:14;;;;;;;;;;;;;;;33.38;28.60;98187.81;5015360;28;19917;-87
2023/09/20 06:06:40;;;;;;;;;;;;;;;33.42;28.34;98187.63;5015429;28;19917;-87
2023/09/20 06:09:08;;;;;;;;;;;;;;;33.65;28.43;98180.19;5014624;28;19928;-87
2023/09/20 06:11:34;;;;;;;;;;;;;;;33.67;28.76;98189.81;5014047;28;19932;-87
2023/09/20 06:14:00;;;;;;;;;;;;;;;33.67;28.10;98184.09;5015518;28;20020;-87
2023/09/20 06:16:26;;;;;;;;;;;;;;;33.68;28.05;98190.59;5007795;28;19937;-87
2023/09/20 06:18:52;;;;;;;;;;;;;;;33.54;28.47;98192.19;5019028;28;19929;-87
2023/09/20 06:21:18;;;;;;;;;;;;;;;33.56;28.21;98192.47;5007613;28;20407;-87
2023/09/20 06:23:44;;;;;;;;;;;;;;;33.51;28.27;98198.88;5027277;28;19924;-87
2023/09/20 06:26:12;;;;;;;;;;;;;;;33.43;28.34;98198.50;5015667;28;19928;-87
2023/09/20 06:28:41;;;;;;;;;;;;;;;33.62;28.51;98198.25;5012600;28;19980;-87
2023/09/20 06:31:08;;;;;;;;;;;;;;;33.24;29.31;98207.75;5012624;28;20297;-88
2023/09/20 06:33:34;;;;;;;;;;;;;;;33.27;29.04;98209.63;5044614;28;20436;-88
2023/09/20 06:36:00;;;;;;;;;;;;;;;33.53;28.47;98198.41;5013120;28;20017;-88
2023/09/20 06:38:26;;;;;;;;;;;;;;;33.76;28.72;98201.06;5013892;28;19925;-88
2023/09/20 06:40:52;;;;;;;;;;;;;;;33.94;28.94;98205.69;5013897;28;19917;-88
2023/09/20 06:43:19;;;;;;;;;;;;;;;33.94;28.21;98203.63;5014367;28;19929;-88
2023/09/20 06:45:50;;;;;;;;;;;;;;;34.01;29.12;98208.88;5014469;28;19996;-89
2023/09/20 06:48:20;;;;;;;;;;;;;;;34.20;28.87;98215.09;5013899;28;19969;-89
2023/09/20 06:50:50;;;;;;;;;;;;;;;34.20;28.67;98217.16;5013999;28;20420;-89
2023/09/20 06:56:20;;;;;;;;;;;;;;;34.06;29.15;98210.25;5017331;28;19928;-89
2023/09/20 06:58:46;;;;;;;;;;;;;;;34.11;28.84;98212.41;5012114;28;19934;-89
2023/09/20 07:01:13;;;;;;;;;;;;;;;34.17;28.47;98218.19;5012134;28;20384;-89
2023/09/20 07:03:39;;;;;;;;;;;;;;;34.20;28.64;98215.09;5018667;28;19917;-89
2023/09/20 07:06:05;;;;;;;;;;;;;;;34.26;28.58;98215.94;5022721;28;19995;-89
2023/09/20 07:08:31;;;;;;;;;;;;;;;34.50;28.13;98210.75;5010408;28;19991;-89
2023/09/20 07:10:57;;;;;;;;;;;;;;;34.44;27.96;98214.84;5013166;28;19917;-90
2023/09/20 07:13:26;;;;;;;;;;;;;;;34.06;28.63;98216.75;5009602;28;19921;-89
2023/09/20 07:15:54;;;;;;;;;;;;;;;34.02;29.62;98221.88;5013609;28;20015;-90
2023/09/20 07:18:20;;;;;;;;;;;;;;;33.85;29.83;98220.84;5006071;28;19975;-90
2023/09/20 07:20:48;;;;;;;;;;;;;;;34.06;30.11;98216.75;5010009;28;19922;-90
2023/09/20 07:23:15;;;;;;;;;;;;;;;34.11;29.42;98220.16;5011638;28;19921;-90
2023/09/20 07:25:42;;;;;;;;;;;;;;;34.23;29.03;98225.50;5013648;28;20060;-90
2023/09/20 07:28:09;;;;;;;;;;;;;;;34.20;29.55;98229.34;5013820;28;20436;-90
2023/09/20 07:30:40;;;;;;;;;;;;;;;34.63;29.46;98227.53;5012790;28;20373;-90
2023/09/20 07:33:11;;;;;;;;;;;;;;;34.79;28.59;98235.47;5012816;28;19913;-90
2023/09/20 07:35:46;;;;;;;;;;;;;;;34.93;28.31;98237.41;5010272;28;19922;-91
2023/09/20 07:38:25;;;;;;;;;;;;;;;34.69;28.21;98236.91;5012774;28;19914;-89
2023/09/20 07:40:51;;;;;;;;;;;;;;;34.34;28.34;98233.38;5012895;28;19922;-88
2023/09/20 07:43:18;;;;;;;;;;;;;;;33.99;30.38;98244.84;5044337;28;19914;-93
2023/09/20 07:45:44;;;;;;;;;;;;;;;33.87;28.83;98243.13;5013863;28;20012;-89
2023/09/20 07:48:16;;;;;;;;;;;;;;;33.78;29.24;98246.91;5012527;28;19979;-90
2023/09/20 07:50:44;;;;;;;;;;;;;;;33.83;29.47;98251.13;5013106;28;19999;-89
2023/09/20 07:53:10;;;;;;;;;;;;;;;33.96;29.92;98240.94;5013077;28;19917;-91
2023/09/20 07:55:46;;;;;;;;;;;;;;;34.41;28.03;98248.00;5013116;28;19953;-90
2023/09/20 07:58:15;;;;;;;;;;;;;;;34.72;28.10;98241.63;5009957;28;20088;-91
2023/09/20 08:00:42;;;;;;;;;;;;;;;34.68;26.93;98247.53;5010912;28;20360;-91
2023/09/20 08:03:09;;;;;;;;;;;;;;;34.55;27.54;98241.44;5013044;28;19921;-90
2023/09/20 08:05:35;;;;;;;;;;;;;;;34.57;28.57;98250.28;5012860;28;19913;-91
2023/09/20 08:08:01;;;;;;;;;;;;;;;34.75;27.93;98243.47;5008328;28;19932;-91
2023/09/20 08:10:27;;;;;;;;;;;;;;;34.82;26.74;98245.09;5031570;28;19926;-91
2023/09/20 08:12:53;;;;;;;;;;;;;;;34.96;27.13;98244.19;5018533;28;19924;-91
2023/09/20 08:15:20;;;;;;;;;;;;;;;35.23;26.66;98241.59;5013038;28;19917;-91
2023/09/20 08:20:34;;;;;;;;;;;;;;;34.73;27.44;98246.81;5016571;28;19929;-91
2023/09/20 09:01:44;;;;;;;;;;;;;;;35.30;25.91;98234.63;5016000;28;20323;-91
2023/09/20 09:04:12;;;;;;;;;;;;;;;34.88;26.53;98234.50;5016291;28;19936;-91
2023/09/20 09:06:39;;;;;;;;;;;;;;;33.98;28.68;98229.06;5015943;28;20361;-91
2023/09/20 09:09:05;;;;;;;;;;;;;;;33.30;27.31;98235.03;5016313;28;19924;-93
2023/09/20 09:11:31;;;;;;;;;;;;;;;33.22;27.78;98233.88;5014117;28;19972;-92
2023/09/20 09:14:00;;;;;;;;;;;;;;;33.89;27.67;98226.31;5016561;28;19928;-92
2023/09/20 09:16:33;;;;;;;;;;;;;;;34.78;27.52;98231.03;5016206;28;19918;-93
2023/09/20 09:18:59;;;;;;;;;;;;;;;34.64;27.11;98229.88;5016505;28;20369;-91
2023/09/20 09:21:26;;;;;;;;;;;;;;;33.85;27.70;98234.31;5016460;28;19918;-91
2023/09/20 09:23:52;;;;;;;;;;;;;;;32.85;28.25;98238.41;5016489;28;19976;-89
2023/09/20 09:26:18;;;;;;;;;;;;;;;31.93;28.29;98231.09;5016932;28;19928;-92
2023/09/20 09:28:45;;;;;;;;;;;;;;;32.12;28.25;98235.41;5014125;28;19918;-92
2023/09/20 09:31:12;;;;;;;;;;;;;;;32.84;27.93;98230.38;5015448;28;20004;-92
2023/09/20 09:33:39;;;;;;;;;;;;;;;33.21;27.62;98232.31;5016356;28;19921;-92
2023/09/20 09:36:05;;;;;;;;;;;;;;;34.24;26.14;98232.75;5016209;28;19913;-90
2023/09/20 09:38:39;;;;;;;;;;;;;;;34.60;25.94;98225.69;5016216;28;19957;-92
2023/09/20 09:41:08;;;;;;;;;;;;;;;35.06;26.53;98237.03;5016465;28;19914;-92
2023/09/20 09:43:34;;;;;;;;;;;;;;;34.97;25.27;98220.03;5016529;28;20000;-93
2023/09/20 09:46:08;;;;;;;;;;;;;;;34.73;26.31;98234.63;5015943;28;20010;-94
2023/09/20 09:48:37;;;;;;;;;;;;;;;34.06;26.07;98233.84;5016132;28;20305;-93
2023/09/20 09:51:06;;;;;;;;;;;;;;;34.37;25.76;98224.63;5016276;28;19918;-93
2023/09/20 09:53:34;;;;;;;;;;;;;;;34.92;25.99;98232.97;5016222;28;19918;-94
2023/09/20 09:56:03;;;;;;;;;;;;;;;35.17;25.46;98223.63;5015872;28;19933;-94
2023/09/20 09:58:29;;;;;;;;;;;;;;;35.43;24.96;98218.63;5015602;28;20008;-93
2023/09/20 10:00:56;;;;;;;;;;;;;;;35.44;25.23;98219.41;5016056;28;19929;-92
2023/09/20 10:03:25;;;;;;;;;;;;;;;35.00;25.24;98216.19;5014812;28;19922;-94
2023/09/20 10:05:55;;;;;;;;;;;;;;;35.52;26.20;98220.53;5012349;28;19928;-94
2023/09/20 10:08:21;;;;;;;;;;;;;;;34.57;25.98;98218.91;5014737;28;19925;-94
2023/09/20 10:10:47;;;;;;;;;;;;;;;34.90;25.79;98223.34;5012242;28;19917;-93
2023/09/20 10:13:13;;;;;;;;;;;;;;;34.95;25.07;98222.63;5014329;28;20002;-93
2023/09/20 10:15:43;;;;;;;;;;;;;;;34.94;26.36;98219.00;5015363;28;19922;-93
2023/09/20 10:18:09;;;;;;;;;;;;;;;35.25;25.68;98218.22;5015832;28;20043;-94
2023/09/20 10:20:54;;;;;;;;;;;;;;;35.28;25.17;98220.09;5015351;28;19917;-93
2023/09/20 10:23:22;;;;;;;;;;;;;;;34.85;24.98;98209.81;5015416;28;19924;-93
2023/09/20 10:25:48;;;;;;;;;;;;;;;34.64;25.72;98218.47;5015486;28;20008;-93
2023/09/20 10:28:17;;;;;;;;;;;;;;;35.39;26.03;98215.22;5014950;28;19918;-95
2023/09/20 10:30:56;;;;;;;;;;;;;;;35.56;24.49;98218.22;5015356;28;20009;-94
2023/09/20 10:33:45;;;;;;;;;;;;;;;36.17;23.79;98212.84;5015465;28;19913;-94
2023/09/20 10:36:13;;;;;;;;;;;;;;;35.94;25.66;98219.75;5001742;28;19917;-92
2023/09/20 10:38:40;;;;;;;;;;;;;;;36.21;24.63;98201.16;5015068;28;19921;-94
2023/09/20 10:41:09;;;;;;;;;;;;;;;35.80;24.67;98209.28;5014558;28;19917;-94
2023/09/20 10:43:35;;;;;;;;;;;;;;;35.93;24.33;98212.44;5014933;28;19918;-93
2023/09/20 10:46:08;;;;;;;;;;;;;;;35.93;23.33;98221.81;5009037;28;19918;-93
2023/09/20 10:48:38;;;;;;;;;;;;;;;36.36;24.26;98213.16;5015093;28;19925;-93
2023/09/20 10:51:07;;;;;;;;;;;;;;;36.58;24.54;98207.50;5015654;28;20393;-93
2023/09/20 10:53:42;;;;;;;;;;;;;;;36.36;24.39;98196.75;5014625;28;19917;-95
2023/09/20 10:56:09;;;;;;;;;;;;;;;36.32;23.64;98198.31;5014067;28;19945;-94
2023/09/20 10:58:38;;;;;;;;;;;;;;;36.73;22.85;98193.75;5010229;28;20297;-92
2023/09/20 11:01:06;;;;;;;;;;;;;;;36.95;23.58;98185.19;5011662;28;19929;-94
2023/09/20 11:03:33;;;;;;;;;;;;;;;36.63;23.27;98193.22;5014959;28;19917;-95
2023/09/20 11:06:00;;;;;;;;;;;;;;;36.63;23.95;98189.56;5014862;28;20392;-95
2023/09/20 11:08:27;;;;;;;;;;;;;;;35.53;23.86;98187.03;5013678;28;19917;-91
2023/09/20 11:10:54;;;;;;;;;;;;;;;35.95;24.05;98167.75;5014275;28;20266;-94
2023/09/20 11:13:22;;;;;;;;;;;;;;;36.09;23.98;98177.44;5014679;28;19954;-95
2023/09/20 11:15:48;;;;;;;;;;;;;;;36.69;23.58;98173.19;5014312;28;19914;-93
2023/09/20 11:18:15;;;;;;;;;;;;;;;36.34;23.99;98170.75;5013390;28;19926;-94
2023/09/20 11:20:41;;;;;;;;;;;;;;;36.94;23.25;98169.34;5014790;28;19971;-95
2023/09/20 11:23:09;;;;;;;;;;;;;;;37.37;22.90;98170.59;5013870;28;20137;-94
2023/09/20 11:25:36;;;;;;;;;;;;;;;37.49;22.44;98167.72;5013630;28;20353;-95
2023/09/20 11:28:04;;;;;;;;;;;;;;;37.21;23.26;98162.78;5014399;28;19965;-95
2023/09/20 11:30:31;;;;;;;;;;;;;;;37.35;22.90;98158.06;5013345;28;19952;-94
2023/09/20 11:33:01;;;;;;;;;;;;;;;37.76;22.33;98159.03;5012581;28;19964;-96
2023/09/20 11:35:38;;;;;;;;;;;;;;;37.61;22.08;98149.97;5013541;28;19953;-95
2023/09/20 11:38:05;;;;;;;;;;;;;;;37.64;22.23;98139.53;5014036;28;20373;-94
2023/09/20 11:40:31;;;;;;;;;;;;;;;37.09;21.64;98146.94;5014058;28;19918;-96
2023/09/20 11:42:57;;;;;;;;;;;;;;;36.06;23.65;98144.97;5024721;28;19917;-96
2023/09/20 11:45:24;;;;;;;;;;;;;;;35.51;23.46;98149.63;5032880;28;19952;-96
2023/09/20 11:47:51;;;;;;;;;;;;;;;35.59;23.54;98140.09;5033906;28;19921;-95
2023/09/20 11:50:17;;;;;;;;;;;;;;;35.56;24.64;98143.16;5022889;28;19926;-95
2023/09/20 11:52:47;;;;;;;;;;;;;;;35.53;25.15;98136.41;5011314;28;19922;-96
2023/09/20 11:55:13;;;;;;;;;;;;;;;36.23;23.10;98127.06;5013720;28;19925;-96
2023/09/20 11:57:45;;;;;;;;;;;;;;;36.87;22.22;98135.47;5014526;28;19948;-95
2023/09/20 12:00:29;;;;;;;;;;;;;;;37.17;21.76;98130.78;5013161;28;19945;-95
2023/09/20 12:02:56;;;;;;;;;;;;;;;37.47;22.01;98135.94;5013973;28;19918;-96
2023/09/20 12:05:22;;;;;;;;;;;;;;;37.52;21.53;98130.19;5014384;28;20492;-95
2023/09/20 12:08:01;;;;;;;;;;;;;;;37.62;21.21;98128.63;4996652;28;20034;-96
2023/09/20 12:10:28;;;;;;;;;;;;;;;37.36;22.91;98128.94;4994524;28;20005;-96
2023/09/20 12:12:54;;;;;;;;;;;;;;;37.72;21.20;98120.47;5009909;28;19971;-96
2023/09/20 12:15:23;;;;;;;;;;;;;;;37.87;22.10;98115.25;5014102;28;19921;-96
2023/09/20 12:17:51;;;;;;;;;;;;;;;38.13;21.96;98114.84;5015012;28;19925;-96
2023/09/20 12:20:17;;;;;;;;;;;;;;;37.71;22.69;98116.84;5014737;28;19925;-95
2023/09/20 12:22:44;;;;;;;;;;;;;;;37.96;22.68;98112.06;5014094;28;19967;-96
2023/09/20 12:25:15;;;;;;;;;;;;;;;37.97;21.05;98114.38;5013646;28;20004;-96
2023/09/20 12:27:43;;;;;;;;;;;;;;;37.74;21.74;98112.16;5014080;28;20024;-96
2023/09/20 12:30:12;;;;;;;;;;;;;;;37.79;20.87;98114.19;5014377;28;20339;-96
2023/09/20 12:32:41;;;;;;;;;;;;;;;37.85;21.85;98112.13;5014770;28;19921;-96
2023/09/20 12:35:10;;;;;;;;;;;;;;;38.18;23.42;98116.91;5017711;28;20397;-96
2023/09/20 12:37:37;;;;;;;;;;;;;;;38.09;21.70;98102.88;5012941;28;19922;-96
2023/09/20 12:40:08;;;;;;;;;;;;;;;38.01;21.41;98097.69;5007310;28;20004;-96
2023/09/20 12:42:37;;;;;;;;;;;;;;;38.47;20.62;98101.84;5007687;28;20305;-96
2023/09/20 12:45:07;;;;;;;;;;;;;;;38.76;20.80;98098.25;5012995;28;20289;-96
2023/09/20 12:47:39;;;;;;;;;;;;;;;38.93;20.21;98098.88;5007035;28;19928;-95
2023/09/20 12:50:07;;;;;;;;;;;;;;;39.02;20.70;98103.50;5010083;28;19973;-96
2023/09/20 12:52:33;;;;;;;;;;;;;;;39.00;19.88;98092.53;5008647;28;20016;-96
2023/09/20 12:54:59;;;;;;;;;;;;;;;39.05;20.18;98097.44;5008040;28;20012;-95
2023/09/20 12:57:25;;;;;;;;;;;;;;;39.20;20.96;98094.97;5011165;28;19921;-96
2023/09/20 12:59:52;;;;;;;;;;;;;;;39.21;19.92;98090.78;5013788;28;19917;-95
2023/09/20 13:02:18;;;;;;;;;;;;;;;39.38;19.84;98093.47;5011242;28;20281;-96
2023/09/20 13:04:46;;;;;;;;;;;;;;;38.98;20.29;98086.53;5007962;28;19921;-95
2023/09/20 13:07:12;;;;;;;;;;;;;;;39.35;19.74;98083.81;5017143;28;19928;-95
2023/09/20 13:09:39;;;;;;;;;;;;;;;39.30;19.45;98083.91;5014736;28;20296;-96
2023/09/20 13:12:05;;;;;;;;;;;;;;;38.93;20.33;98078.75;5031178;28;19964;-96
2023/09/20 13:14:31;;;;;;;;;;;;;;;38.63;20.98;98075.88;5021164;28;19917;-96
2023/09/20 13:16:58;;;;;;;;;;;;;;;38.55;20.98;98074.13;5018266;28;20395;-96
2023/09/20 13:19:24;;;;;;;;;;;;;;;38.40;21.98;98077.38;5010005;28;19927;-96
2023/09/20 13:21:50;;;;;;;;;;;;;;;38.58;22.47;98076.69;5012283;28;20343;-95
2023/09/20 13:24:17;;;;;;;;;;;;;;;38.50;20.93;98069.22;5011509;28;19928;-95
2023/09/20 13:26:44;;;;;;;;;;;;;;;38.57;21.40;98077.25;5007378;28;19917;-96
2023/09/20 13:29:13;;;;;;;;;;;;;;;38.81;21.28;98071.59;5010387;28;20288;-96
2023/09/20 13:31:39;;;;;;;;;;;;;;;38.48;20.25;98071.84;5007241;28;19926;-96
2023/09/20 13:34:15;;;;;;;;;;;;;;;38.78;21.45;98069.00;5007753;28;20377;-96
2023/09/20 13:36:44;;;;;;;;;;;;;;;39.24;20.91;98060.97;5013523;28;19956;-96